EST,Max TemperatureF,Mean TemperatureF,Min TemperatureF,Max Dew PointF,MeanDew PointF,Min DewpointF,Max Humidity, Mean Humidity, Min Humidity, Max Sea Level PressureIn, Mean Sea Level PressureIn, Min Sea Level PressureIn, Max VisibilityMiles, Mean VisibilityMiles, Min VisibilityMiles, Max Wind SpeedMPH, Mean Wind SpeedMPH, Max Gust SpeedMPH,PrecipitationIn, CloudCover, Events, WindDirDegrees
2013-2-1,20,17,14,12,8,5,76,67,51,30.18,30.10,29.88,10,7,0,22,12,26,0.00,8,Snow,261
2013-2-2,20,13,6,14,8,0,80,70,55,30.12,30.01,29.95,10,6,0,13,8,16,0.00,7,Snow,303
2013-2-3,23,12,2,15,8,-4,79,70,54,29.98,29.90,29.83,10,7,1,20,5,28,0.00,7,Snow,263
2013-2-4,23,18,12,15,13,6,84,75,65,29.97,29.92,29.86,10,6,1,7,4,,0.00,7,Snow,108
2013-2-5,32,18,3,26,14,-3,83,76,58,29.97,29.84,29.74,10,7,2,17,6,22,0.00,5,Snow,235
2013-2-6,34,22,10,22,15,4,84,67,44,30.24,30.16,29.99,10,8,0,10,4,,0.00,4,Fog-Snow,189
2013-2-7,37,33,29,31,24,18,89,70,60,30.21,30.05,29.85,10,7,0,15,8,20,0.04,8,Snow,114
2013-2-8,33,26,18,28,20,12,87,69,47,30.34,30.10,29.84,10,7,1,22,12,28,0.00,4,Snow,5
2013-2-9,32,17,2,22,9,-4,85,72,55,30.40,30.33,30.20,10,6,0,10,2,,0.00,2,Snow,146
2013-2-10,43,30,16,38,24,12,86,76,56,30.19,29.93,29.58,10,7,3,21,8,26,0.04,5,Rain,122
2013-2-11,46,40,33,41,30,23,85,72,56,29.85,29.61,29.48,10,9,2,39,19,44,0.00,8,Snow,243
2013-2-12,33,32,30,24,22,21,72,67,62,30.02,29.95,29.86,10,10,7,18,13,28,0.00,8,Snow,264
2013-2-13,42,34,27,27,24,21,78,68,49,29.89,29.77,29.70,10,8,5,14,8,,0.00,6,,217
2013-2-14,42,37,32,33,30,23,84,77,64,29.86,29.69,29.61,10,7,3,25,10,32,0.00,7,Rain-Snow,226
2013-2-15,32,28,24,23,14,10,70,56,41,30.12,30.03,29.87,10,10,7,14,9,22,0.00,7,,299
2013-2-16,27,22,18,18,13,7,78,66,41,30.08,30.03,29.99,10,10,3,10,7,17,0.00,7,Snow,284
2013-2-17,28,20,11,12,6,2,74,56,33,30.18,30.13,30.07,10,10,7,10,4,,0.00,4,Snow,272
2013-2-18,47,35,23,40,22,11,80,57,43,30.12,29.82,29.46,10,10,10,21,13,31,0.01,3,Rain,165
2013-2-19,46,33,20,40,22,11,84,73,61,29.92,29.63,29.35,10,6,0,30,22,39,0.01,8,Rain-Snow,256
2013-2-20,26,22,19,16,11,8,68,61,52,30.24,30.12,29.93,10,10,7,20,16,32,0.00,8,Snow,303
2013-2-21,26,23,20,18,16,12,85,71,61,30.35,30.29,30.19,10,10,7,20,9,26,0.00,6,Snow,40
2013-2-22,28,24,20,27,22,16,96,89,80,30.18,30.00,29.84,10,6,0,20,14,28,0.00,8,Snow,99
2013-2-23,30,26,23,25,23,21,100,90,80,29.89,29.87,29.85,10,5,1,16,12,22,0.00,6,Snow,229
2013-2-24,37,30,23,32,25,23,100,79,56,30.13,30.01,29.87,10,9,3,14,9,20,0.00,8,Snow,264
2013-2-25,39,26,14,28,22,14,100,83,53,30.20,30.14,30.07,10,7,0,10,3,,0.00,3,Fog,263
2013-2-26,34,30,25,33,27,21,100,86,71,30.10,29.80,29.51,10,7,0,24,13,34,0.07,4,Snow,66
2013-2-27,35,34,33,35,34,33,100,99,96,29.57,29.51,29.45,10,6,2,18,10,23,0.00,8,Rain-Snow,35
2013-2-28,37,34,30,33,30,23,99,85,70,29.98,29.77,29.57,10,9,3,16,9,22,0.00,8,Snow,358